Time;durP1;ratioP1;P1;durP2;ratioP2;P2;SDS_P1;SDS_P2;PMS_P1;PMS_P2;Temp;Humidity;BMP_temperature;BMP_pressure;BME280_temperature;BME280_humidity;BME280_pressure;Samples;Min_cycle;Max_cycle;Signal;HPM_P1;HPM_P2
2022/09/09 00:01:42;;;;;;;;;;;;;;;14.12;100.00;100724.72;5034387;28;19923;-41
2022/09/09 00:04:25;;;;;;;;;;;;;;;14.08;100.00;100731.44;5028776;28;19947;-41
2022/09/09 00:06:54;;;;;;;;;;;;;;;14.06;100.00;100730.00;5033433;28;20367;-43
2022/09/09 00:09:21;;;;;;;;;;;;;;;14.03;100.00;100719.63;5023644;28;19963;-41
2022/09/09 00:11:58;;;;;;;;;;;;;;;14.02;100.00;100709.88;5025686;28;20007;-43
2022/09/09 00:14:30;;;;;;;;;;;;;;;14.04;100.00;100722.13;5023781;28;21103;-44
2022/09/09 00:16:59;;;;;;;;;;;;;;;14.05;100.00;100706.81;5029193;28;19913;-41
2022/09/09 00:19:33;;;;;;;;;;;;;;;14.08;100.00;100703.78;5022671;28;19916;-45
2022/09/09 00:22:18;;;;;;;;;;;;;;;14.13;100.00;100704.03;5025885;28;19966;-46
2022/09/09 00:24:43;;;;;;;;;;;;;;;14.17;100.00;100702.63;5028452;28;19936;-41
2022/09/09 00:27:14;;;;;;;;;;;;;;;14.17;100.00;100705.31;5021331;28;19912;-45
2022/09/09 00:29:45;;;;;;;;;;;;;;;14.17;100.00;100698.13;5035217;28;20260;-44
2022/09/09 00:32:16;;;;;;;;;;;;;;;14.14;100.00;100698.47;5034398;28;19995;-42
2022/09/09 00:35:02;;;;;;;;;;;;;;;14.12;100.00;100703.22;5034344;28;20312;-41
2022/09/09 00:37:28;;;;;;;;;;;;;;;14.08;100.00;100701.91;5030078;28;19913;-41
2022/09/09 00:39:55;;;;;;;;;;;;;;;14.11;100.00;100701.53;5022680;28;20381;-45
2022/09/09 00:42:25;;;;;;;;;;;;;;;14.09;100.00;100692.84;5029948;28;20418;-43
2022/09/09 00:44:56;;;;;;;;;;;;;;;14.08;100.00;100691.16;5022109;28;20185;-45
2022/09/09 00:47:38;;;;;;;;;;;;;;;14.05;100.00;100691.53;5023894;28;20301;-43
2022/09/09 00:50:14;;;;;;;;;;;;;;;14.07;100.00;100689.53;5023312;28;20299;-45
2022/09/09 00:52:47;;;;;;;;;;;;;;;14.08;100.00;100685.78;5032534;28;19908;-43
2022/09/09 00:55:15;;;;;;;;;;;;;;;14.07;100.00;100686.84;5034483;28;19925;-42
2022/09/09 00:57:41;;;;;;;;;;;;;;;14.06;100.00;100681.66;5029665;28;19912;-44
2022/09/09 01:00:16;;;;;;;;;;;;;;;14.06;100.00;100674.41;5031775;28;20348;-41
2022/09/09 01:02:52;;;;;;;;;;;;;;;14.05;100.00;100675.44;5021636;28;19912;-41
2022/09/09 01:05:34;;;;;;;;;;;;;;;13.98;100.00;100675.38;5032897;28;20068;-45
2022/09/09 01:08:02;;;;;;;;;;;;;;;13.97;100.00;100672.88;5031898;28;20089;-43
2022/09/09 01:10:46;;;;;;;;;;;;;;;13.97;100.00;100680.94;5019887;28;19916;-42
2022/09/09 01:13:16;;;;;;;;;;;;;;;13.97;100.00;100680.94;5024221;28;20443;-43
2022/09/09 01:15:43;;;;;;;;;;;;;;;13.94;100.00;100678.63;5031492;28;19924;-42
2022/09/09 01:18:10;;;;;;;;;;;;;;;13.92;100.00;100678.78;5028570;28;19912;-43
2022/09/09 01:20:45;;;;;;;;;;;;;;;13.89;100.00;100678.34;5017052;28;20562;-41
2022/09/09 01:23:16;;;;;;;;;;;;;;;13.85;100.00;100675.22;5028235;28;19905;-45
2022/09/09 01:26:00;;;;;;;;;;;;;;;13.84;100.00;100678.91;5018300;28;19912;-42
2022/09/09 01:28:26;;;;;;;;;;;;;;;13.80;100.00;100681.13;5033198;28;19982;-42
2022/09/09 01:30:52;;;;;;;;;;;;;;;13.75;100.00;100680.03;5032984;28;19916;-46
2022/09/09 01:33:18;;;;;;;;;;;;;;;13.71;100.00;100681.41;5032367;28;19981;-42
2022/09/09 01:36:12;;;;;;;;;;;;;;;13.69;100.00;100670.84;5017664;28;19917;-41
2022/09/09 01:38:37;;;;;;;;;;;;;;;13.67;100.00;100677.44;5021549;28;20418;-41
2022/09/09 01:41:03;;;;;;;;;;;;;;;13.68;100.00;100671.03;5016849;28;20128;-43
2022/09/09 01:43:28;;;;;;;;;;;;;;;13.67;100.00;100666.69;5033068;28;19963;-41
2022/09/09 01:45:55;;;;;;;;;;;;;;;13.68;100.00;100666.53;5031957;28;19923;-42
2022/09/09 01:48:22;;;;;;;;;;;;;;;13.69;100.00;100661.97;5023392;28;19905;-45
2022/09/09 01:50:47;;;;;;;;;;;;;;;13.68;100.00;100662.97;5032324;28;19920;-42
2022/09/09 01:53:13;;;;;;;;;;;;;;;13.66;100.00;100651.59;5032979;28;20319;-45
2022/09/09 01:55:40;;;;;;;;;;;;;;;13.63;100.00;100668.94;5021964;28;19917;-46
2022/09/09 01:58:05;;;;;;;;;;;;;;;13.62;100.00;100664.56;5025590;28;20469;-41
2022/09/09 02:00:33;;;;;;;;;;;;;;;13.60;100.00;100664.75;5064662;28;20380;-44
2022/09/09 02:03:05;;;;;;;;;;;;;;;13.58;100.00;100661.41;5031578;28;20015;-43
2022/09/09 02:05:37;;;;;;;;;;;;;;;13.58;100.00;100657.91;5031392;28;19921;-45
2022/09/09 02:08:07;;;;;;;;;;;;;;;13.58;100.00;100656.06;5027549;28;19940;-44
2022/09/09 02:10:52;;;;;;;;;;;;;;;13.60;100.00;100648.66;5018788;28;20378;-45
2022/09/09 02:13:19;;;;;;;;;;;;;;;13.59;100.00;100638.09;5033021;28;19913;-45
2022/09/09 02:16:00;;;;;;;;;;;;;;;13.60;100.00;100637.09;5028314;28;19905;-42
2022/09/09 02:18:34;;;;;;;;;;;;;;;13.57;100.00;100646.31;5023326;28;20429;-46
2022/09/09 02:20:59;;;;;;;;;;;;;;;13.56;100.00;100646.50;5027686;28;19916;-42
2022/09/09 02:23:24;;;;;;;;;;;;;;;13.54;100.00;100648.56;5030724;28;19923;-44
2022/09/09 02:25:52;;;;;;;;;;;;;;;13.53;100.00;100646.91;5023374;28;20098;-42
2022/09/09 02:28:20;;;;;;;;;;;;;;;13.53;100.00;100653.09;5033687;28;20350;-42
2022/09/09 02:30:46;;;;;;;;;;;;;;;13.55;100.00;100643.00;5032044;28;20025;-41
2022/09/09 02:33:12;;;;;;;;;;;;;;;13.58;100.00;100636.44;5034431;28;19924;-42
2022/09/09 02:35:39;;;;;;;;;;;;;;;13.60;100.00;100635.22;5030787;28;19920;-41
2022/09/09 02:38:07;;;;;;;;;;;;;;;13.62;100.00;100637.72;5025922;28;19955;-44
2022/09/09 02:40:33;;;;;;;;;;;;;;;13.62;100.00;100637.72;5045897;28;19924;-41
2022/09/09 02:42:59;;;;;;;;;;;;;;;13.60;100.00;100637.91;5029609;28;19938;-45
2022/09/09 02:45:30;;;;;;;;;;;;;;;13.62;100.00;100640.41;5032383;28;19982;-42
2022/09/09 02:48:10;;;;;;;;;;;;;;;13.58;100.00;100626.53;5029690;28;20381;-45
2022/09/09 02:50:53;;;;;;;;;;;;;;;13.61;100.00;100639.59;5017881;28;19913;-43
2022/09/09 02:53:22;;;;;;;;;;;;;;;13.62;100.00;100641.25;5022756;28;20618;-41
2022/09/09 02:55:48;;;;;;;;;;;;;;;13.65;100.00;100637.38;5029517;28;19921;-41
2022/09/09 02:58:16;;;;;;;;;;;;;;;13.66;100.00;100633.63;5025087;28;19920;-42
2022/09/09 03:00:42;;;;;;;;;;;;;;;13.65;100.00;100641.91;5014717;28;20007;-42
2022/09/09 03:03:11;;;;;;;;;;;;;;;13.66;100.00;100644.38;5016759;28;19955;-45
2022/09/09 03:05:36;;;;;;;;;;;;;;;13.66;100.00;100647.06;5020608;28;19996;-45
2022/09/09 03:08:02;;;;;;;;;;;;;;;13.67;100.00;100646.06;5029731;28;20007;-43
2022/09/09 03:10:27;;;;;;;;;;;;;;;13.65;100.00;100636.53;5031437;28;19990;-43
2022/09/09 03:12:52;;;;;;;;;;;;;;;13.67;100.00;100643.38;5033322;28;19909;-41
2022/09/09 03:15:17;;;;;;;;;;;;;;;13.70;100.00;100650.22;5032973;28;19999;-43
2022/09/09 03:17:43;;;;;;;;;;;;;;;13.70;100.00;100644.88;5032705;28;19913;-45
2022/09/09 03:20:08;;;;;;;;;;;;;;;13.71;100.00;100641.97;5023427;28;20015;-44
2022/09/09 03:22:33;;;;;;;;;;;;;;;13.72;100.00;100651.69;5020848;28;20342;-44
2022/09/09 03:24:59;;;;;;;;;;;;;;;13.69;100.00;100648.56;5024946;28;20317;-41
2022/09/09 03:27:24;;;;;;;;;;;;;;;13.68;100.00;100646.88;5023435;28;19974;-42
2022/09/09 03:29:52;;;;;;;;;;;;;;;13.68;100.00;100645.03;5035702;28;19912;-40
2022/09/09 03:32:18;;;;;;;;;;;;;;;13.68;100.00;100645.03;5034795;28;19916;-39
2022/09/09 03:34:43;;;;;;;;;;;;;;;13.68;100.00;100645.03;5035016;28;19927;-43
2022/09/09 03:37:08;;;;;;;;;;;;;;;13.70;100.00;100650.22;5033828;28;20486;-45
2022/09/09 03:39:33;;;;;;;;;;;;;;;13.71;100.00;100646.50;5026745;28;19990;-46
2022/09/09 03:41:59;;;;;;;;;;;;;;;13.70;100.00;100648.38;5030875;28;20287;-42
2022/09/09 03:44:24;;;;;;;;;;;;;;;13.74;100.00;100652.34;5030274;28;19923;-43
2022/09/09 03:46:49;;;;;;;;;;;;;;;13.73;100.00;100645.31;5032705;28;19916;-40
2022/09/09 03:49:15;;;;;;;;;;;;;;;13.71;100.00;100651.88;5024683;28;19921;-40
2022/09/09 03:51:40;;;;;;;;;;;;;;;13.68;100.00;100641.50;5031206;28;20188;-44
2022/09/09 03:54:08;;;;;;;;;;;;;;;13.67;100.00;100647.91;5031077;28;19958;-42
2022/09/09 03:56:33;;;;;;;;;;;;;;;13.62;100.00;100638.56;5031560;28;19912;-44
2022/09/09 03:58:58;;;;;;;;;;;;;;;13.62;100.00;100638.56;5017196;28;20413;-45
2022/09/09 04:01:24;;;;;;;;;;;;;;;13.63;100.00;100639.41;5029628;28;20367;-40
2022/09/09 04:03:50;;;;;;;;;;;;;;;13.61;100.00;100644.09;5035307;28;19924;-42
2022/09/09 04:06:16;;;;;;;;;;;;;;;13.60;100.00;100631.72;5032159;28;19917;-44
2022/09/09 04:08:41;;;;;;;;;;;;;;;13.57;100.00;100632.09;5033988;28;19952;-41
2022/09/09 04:11:07;;;;;;;;;;;;;;;13.56;100.00;100625.03;5035163;28;20120;-41
2022/09/09 04:13:38;;;;;;;;;;;;;;;13.51;100.00;100635.50;5066539;28;19913;-43
2022/09/09 04:16:04;;;;;;;;;;;;;;;13.49;100.00;100624.13;5032093;28;20000;-41
2022/09/09 04:18:29;;;;;;;;;;;;;;;13.49;100.00;100626.81;5030651;28;20352;-41
2022/09/09 04:20:57;;;;;;;;;;;;;;;13.49;100.00;100629.50;5021467;28;20179;-45
2022/09/09 04:23:23;;;;;;;;;;;;;;;13.47;100.00;100632.38;5030898;28;20366;-43
2022/09/09 04:25:50;;;;;;;;;;;;;;;13.43;100.00;100625.72;5034300;28;19958;-46
2022/09/09 04:28:16;;;;;;;;;;;;;;;13.42;100.00;100630.25;5035606;28;20008;-42
2022/09/09 04:30:41;;;;;;;;;;;;;;;13.43;100.00;100629.22;5021536;28;20053;-41
2022/09/09 04:33:07;;;;;;;;;;;;;;;13.46;100.00;100620.00;5032734;28;19946;-42
2022/09/09 04:35:32;;;;;;;;;;;;;;;13.50;100.00;100623.94;5032730;28;19912;-42
2022/09/09 04:37:58;;;;;;;;;;;;;;;13.52;100.00;100629.97;5032008;28;19917;-41
2022/09/09 04:40:23;;;;;;;;;;;;;;;13.53;100.00;100622.75;5016287;28;19935;-43
2022/09/09 04:42:50;;;;;;;;;;;;;;;13.53;100.00;100620.91;5048080;28;20011;-43
2022/09/09 04:45:15;;;;;;;;;;;;;;;13.51;100.00;100622.94;5032330;28;19917;-43
2022/09/09 04:47:41;;;;;;;;;;;;;;;13.52;100.00;100621.09;5034926;28;19916;-43
2022/09/09 04:50:06;;;;;;;;;;;;;;;13.51;100.00;100620.25;5029199;28;19923;-42
2022/09/09 04:52:33;;;;;;;;;;;;;;;13.51;100.00;100622.09;5023490;28;19956;-45
2022/09/09 04:54:58;;;;;;;;;;;;;;;13.49;100.00;100619.59;5028288;28;19912;-43
2022/09/09 04:57:24;;;;;;;;;;;;;;;13.49;100.00;100616.09;5021225;28;19925;-45
2022/09/09 04:59:49;;;;;;;;;;;;;;;13.50;100.00;100609.72;5030070;28;20176;-44
2022/09/09 05:02:15;;;;;;;;;;;;;;;13.46;100.00;100601.22;5032110;28;19927;-41
2022/09/09 05:04:40;;;;;;;;;;;;;;;13.50;100.00;100609.72;5031967;28;19917;-44
2022/09/09 05:07:06;;;;;;;;;;;;;;;13.52;100.00;100618.41;5034264;28;20113;-43
2022/09/09 05:09:31;;;;;;;;;;;;;;;13.57;100.00;100616.00;5031535;28;20406;-44
2022/09/09 05:11:58;;;;;;;;;;;;;;;13.61;100.00;100614.59;5027109;28;20493;-43
2022/09/09 05:14:23;;;;;;;;;;;;;;;13.63;100.00;100615.25;5024659;28;19921;-44
2022/09/09 05:16:49;;;;;;;;;;;;;;;13.66;100.00;100605.97;5033691;28;20031;-40
2022/09/09 05:19:15;;;;;;;;;;;;;;;13.68;100.00;100603.94;5028467;28;19916;-41
2022/09/09 05:21:41;;;;;;;;;;;;;;;13.71;100.00;100608.94;5029896;28;19944;-40
2022/09/09 05:24:06;;;;;;;;;;;;;;;13.71;100.00;100606.25;5030043;28;20056;-43
2022/09/09 05:26:32;;;;;;;;;;;;;;;13.71;100.00;100611.63;5020008;28;21235;-45
2022/09/09 05:28:58;;;;;;;;;;;;;;;13.71;100.00;100601.72;5023821;28;19909;-41
2022/09/09 05:31:27;;;;;;;;;;;;;;;13.74;100.00;100601.34;5034013;28;19955;-43
2022/09/09 05:33:52;;;;;;;;;;;;;;;13.79;100.00;100601.59;5031161;28;19995;-43
2022/09/09 05:36:20;;;;;;;;;;;;;;;13.83;100.00;100595.88;5027589;28;20588;-42
2022/09/09 05:38:45;;;;;;;;;;;;;;;13.87;100.00;100591.81;5028013;28;20338;-42
2022/09/09 05:41:11;;;;;;;;;;;;;;;13.89;100.00;100595.13;5031496;28;20090;-42
2022/09/09 05:43:37;;;;;;;;;;;;;;;13.89;100.00;100604.00;5032468;28;20349;-41
2022/09/09 05:46:07;;;;;;;;;;;;;;;13.90;100.00;100597.63;5022738;28;19913;-43
2022/09/09 05:48:34;;;;;;;;;;;;;;;13.91;100.00;100595.75;5025114;28;19986;-42
2022/09/09 05:50:59;;;;;;;;;;;;;;;13.91;100.00;100610.00;5027514;28;20027;-47
2022/09/09 05:53:25;;;;;;;;;;;;;;;13.96;100.00;100617.50;5021863;28;19926;-44
2022/09/09 05:55:50;;;;;;;;;;;;;;;14.03;100.00;100609.53;5024626;28;19913;-41
2022/09/09 05:58:16;;;;;;;;;;;;;;;14.11;100.00;100610.22;5019964;28;19913;-42
2022/09/09 06:00:43;;;;;;;;;;;;;;;14.16;100.00;100612.34;5027203;28;19905;-41
2022/09/09 06:03:10;;;;;;;;;;;;;;;14.20;100.00;100619.00;5017666;28;19959;-43
2022/09/09 06:05:35;;;;;;;;;;;;;;;14.22;100.00;100621.50;5019317;28;20315;-44
2022/09/09 06:08:00;;;;;;;;;;;;;;;14.21;100.00;100620.66;5021438;28;19938;-45
2022/09/09 06:10:25;;;;;;;;;;;;;;;14.23;100.00;100624.00;5031483;28;19917;-42
2022/09/09 06:12:52;;;;;;;;;;;;;;;14.27;100.00;100621.75;5032807;28;19952;-46
2022/09/09 06:15:17;;;;;;;;;;;;;;;14.29;100.00;100620.56;5031400;28;19983;-42
2022/09/09 06:17:43;;;;;;;;;;;;;;;14.34;100.00;100625.34;5020700;28;19960;-43
2022/09/09 06:20:09;;;;;;;;;;;;;;;14.38;100.00;100618.56;5017932;28;19956;-44
2022/09/09 06:22:34;;;;;;;;;;;;;;;14.45;100.00;100627.53;5022590;28;19956;-42
2022/09/09 06:25:00;;;;;;;;;;;;;;;14.55;100.00;100627.22;5022956;28;20148;-41
2022/09/09 06:27:26;;;;;;;;;;;;;;;14.65;100.00;100626.91;5030828;28;20159;-44
2022/09/09 06:29:52;;;;;;;;;;;;;;;14.77;100.00;100625.38;5027977;28;19932;-42
2022/09/09 06:32:17;;;;;;;;;;;;;;;14.89;100.00;100631.03;5059000;28;20339;-42
2022/09/09 06:34:42;;;;;;;;;;;;;;;14.94;100.00;100627.78;5021873;28;20187;-43
2022/09/09 06:37:08;;;;;;;;;;;;;;;14.97;100.00;100628.22;5028574;28;19967;-44
2022/09/09 06:39:33;;;;;;;;;;;;;;;14.99;100.00;100625.34;5027476;28;19920;-40
2022/09/09 06:41:58;;;;;;;;;;;;;;;15.00;100.00;100625.09;5026064;28;19920;-44
2022/09/09 06:44:26;;;;;;;;;;;;;;;14.97;100.00;100628.22;5027155;28;19924;-43
2022/09/09 06:46:52;;;;;;;;;;;;;;;15.00;100.00;100622.41;5026963;28;20369;-44
2022/09/09 06:49:17;;;;;;;;;;;;;;;15.03;100.00;100619.34;5031427;28;19916;-42
2022/09/09 06:51:42;;;;;;;;;;;;;;;15.03;100.00;100616.66;5065759;28;19912;-42
2022/09/09 06:54:08;;;;;;;;;;;;;;;15.02;100.00;100615.00;5024577;28;19921;-43
2022/09/09 06:56:35;;;;;;;;;;;;;;;15.01;100.00;100621.41;5025813;28;20031;-44
2022/09/09 06:59:02;;;;;;;;;;;;;;;15.02;100.00;100627.59;5033590;28;20553;-46
2022/09/09 07:01:28;;;;;;;;;;;;;;;15.11;100.00;100615.69;5032542;28;20203;-42
2022/09/09 07:03:55;;;;;;;;;;;;;;;15.22;100.00;100623.22;5030255;28;19920;-43
2022/09/09 07:06:24;;;;;;;;;;;;;;;15.37;100.00;100624.94;5031586;28;19912;-43
2022/09/09 07:09:00;;;;;;;;;;;;;;;15.46;100.00;100615.66;5036596;28;20026;-41
2022/09/09 07:11:30;;;;;;;;;;;;;;;15.59;100.00;100625.69;5036217;28;20069;-41
2022/09/09 07:13:56;;;;;;;;;;;;;;;15.71;100.00;100617.88;5034535;28;20276;-42
2022/09/09 07:16:25;;;;;;;;;;;;;;;15.72;100.00;100617.69;5029222;28;20090;-40
2022/09/09 07:18:50;;;;;;;;;;;;;;;15.76;100.00;100618.13;5036224;28;19908;-41
2022/09/09 07:21:16;;;;;;;;;;;;;;;15.80;100.00;100617.53;5034270;28;19908;-41
2022/09/09 07:23:41;;;;;;;;;;;;;;;15.82;100.00;100617.34;5068560;28;19951;-43
2022/09/09 07:26:11;;;;;;;;;;;;;;;15.80;100.00;100614.00;5036378;28;19912;-41
2022/09/09 07:28:37;;;;;;;;;;;;;;;15.79;100.00;100612.34;5036189;28;20367;-41
2022/09/09 07:31:04;;;;;;;;;;;;;;;15.83;100.00;100605.53;5030076;28;19982;-42
2022/09/09 07:33:33;;;;;;;;;;;;;;;15.94;100.00;100609.50;5036308;28;19919;-44
2022/09/09 07:36:17;;;;;;;;;;;;;;;16.03;100.00;100609.09;5031097;28;19959;-44
2022/09/09 07:38:48;;;;;;;;;;;;;;;16.07;100.00;100614.91;5036515;28;20434;-41
2022/09/09 07:41:16;;;;;;;;;;;;;;;16.15;100.00;100603.97;5036645;28;19909;-42
2022/09/09 07:43:42;;;;;;;;;;;;;;;16.18;100.00;100622.41;5036069;28;19986;-43
2022/09/09 07:46:08;;;;;;;;;;;;;;;16.04;100.00;100618.88;5030448;28;19943;-44
2022/09/09 07:48:33;;;;;;;;;;;;;;;16.01;100.00;100624.66;5035983;28;20422;-44
2022/09/09 07:51:07;;;;;;;;;;;;;;;15.92;100.00;100619.63;5033062;28;19913;-43
2022/09/09 07:53:32;;;;;;;;;;;;;;;15.93;100.00;100614.06;5034247;28;19908;-46
2022/09/09 07:56:04;;;;;;;;;;;;;;;16.00;100.00;100625.69;5035710;28;19908;-42
2022/09/09 07:58:29;;;;;;;;;;;;;;;16.05;100.00;100622.38;5019711;28;20346;-42
2022/09/09 08:00:54;;;;;;;;;;;;;;;16.17;100.00;100623.47;5023384;28;19932;-42
2022/09/09 08:03:21;;;;;;;;;;;;;;;16.23;100.00;100611.03;5025497;28;19912;-43
2022/09/09 08:05:47;;;;;;;;;;;;;;;16.34;100.00;100629.28;5026910;28;20029;-44
2022/09/09 08:08:12;;;;;;;;;;;;;;;16.39;100.00;100617.91;5034246;28;19962;-43
2022/09/09 08:10:37;;;;;;;;;;;;;;;16.54;100.00;100625.81;5031828;28;20345;-44
2022/09/09 08:13:02;;;;;;;;;;;;;;;16.65;100.00;100629.75;5035898;28;20368;-43
2022/09/09 08:15:28;;;;;;;;;;;;;;;16.65;100.00;100629.75;5033853;28;19908;-43
2022/09/09 08:17:53;;;;;;;;;;;;;;;16.59;100.00;100626.00;5035067;28;20189;-42
2022/09/09 08:20:18;;;;;;;;;;;;;;;16.62;100.00;100630.19;5020302;28;20057;-44
2022/09/09 08:22:44;;;;;;;;;;;;;;;16.70;100.00;100632.63;5035876;28;20000;-43
2022/09/09 08:25:10;;;;;;;;;;;;;;;16.69;100.00;100636.41;5021258;28;19939;-42
2022/09/09 08:27:35;;;;;;;;;;;;;;;16.72;100.00;100631.41;5027613;28;19916;-43
2022/09/09 08:30:00;;;;;;;;;;;;;;;16.77;100.00;100628.94;5029419;28;20786;-45
2022/09/09 08:32:26;;;;;;;;;;;;;;;16.90;100.00;100632.69;5023478;28;19958;-41
2022/09/09 08:34:51;;;;;;;;;;;;;;;17.06;100.00;100626.06;5033285;28;19958;-45
2022/09/09 08:37:16;;;;;;;;;;;;;;;17.09;100.00;100641.78;5032459;28;20358;-44
2022/09/09 08:39:41;;;;;;;;;;;;;;;17.11;100.00;100640.56;5034956;28;19923;-43
2022/09/09 08:42:09;;;;;;;;;;;;;;;17.13;100.00;100637.66;5035046;28;20030;-42
2022/09/09 08:44:37;;;;;;;;;;;;;;;17.14;100.00;100645.53;5025169;28;20208;-43
2022/09/09 08:47:21;;;;;;;;;;;;;;;17.00;100.00;100634.97;5033289;28;19947;-46
2022/09/09 08:49:53;;;;;;;;;;;;;;;16.94;100.00;100634.75;5027657;28;20321;-42
2022/09/09 08:52:36;;;;;;;;;;;;;;;16.95;100.00;100649.06;5028589;28;19909;-45
2022/09/09 08:55:03;;;;;;;;;;;;;;;16.93;100.00;100651.16;5024292;28;19960;-43
2022/09/09 08:57:31;;;;;;;;;;;;;;;16.92;100.00;100646.78;5019691;28;20012;-43
2022/09/09 08:59:57;;;;;;;;;;;;;;;16.84;100.00;100650.53;5020160;28;19921;-42
2022/09/09 09:02:38;;;;;;;;;;;;;;;16.83;100.00;100656.09;5022246;28;19913;-42
2022/09/09 09:05:14;;;;;;;;;;;;;;;16.84;100.00;100650.53;5025197;28;20409;-41
2022/09/09 09:07:54;;;;;;;;;;;;;;;16.83;100.00;100653.41;5019025;28;19916;-42
2022/09/09 09:10:40;;;;;;;;;;;;;;;16.78;100.00;100665.66;5022588;28;19921;-46
2022/09/09 09:13:13;;;;;;;;;;;;;;;16.82;100.00;100657.97;5023124;28;20394;-44
2022/09/09 09:15:38;;;;;;;;;;;;;;;16.90;100.00;100657.78;5017270;28;19920;-43
2022/09/09 09:18:04;;;;;;;;;;;;;;;16.90;100.00;100660.47;5022152;28;19978;-41
2022/09/09 09:20:38;;;;;;;;;;;;;;;16.84;100.00;100653.22;5029843;28;19912;-44
2022/09/09 09:23:05;;;;;;;;;;;;;;;16.85;100.00;100660.28;5024039;28;20036;-40
2022/09/09 09:25:39;;;;;;;;;;;;;;;16.90;100.00;100657.78;5032320;28;20007;-42
2022/09/09 09:28:17;;;;;;;;;;;;;;;16.89;100.00;100666.94;5030121;28;19916;-41
2022/09/09 09:31:02;;;;;;;;;;;;;;;16.88;100.00;100662.56;5028656;28;19917;-41
2022/09/09 09:33:32;;;;;;;;;;;;;;;16.95;100.00;100666.09;5019107;28;20429;-44
2022/09/09 09:35:59;;;;;;;;;;;;;;;17.03;100.00;100670.44;5030481;28;19919;-48
2022/09/09 09:38:27;;;;;;;;;;;;;;;16.93;100.00;100675.44;5026946;28;19913;-43
2022/09/09 09:40:57;;;;;;;;;;;;;;;16.82;100.00;100666.06;5020184;28;20003;-44
2022/09/09 09:43:33;;;;;;;;;;;;;;;16.76;100.00;100667.72;5016318;28;20282;-42
2022/09/09 09:45:58;;;;;;;;;;;;;;;16.79;100.00;100661.09;5030096;28;20368;-45
2022/09/09 09:48:24;;;;;;;;;;;;;;;16.87;100.00;100663.63;5026191;28;19913;-42
2022/09/09 09:50:55;;;;;;;;;;;;;;;16.87;100.00;100669.00;5056167;28;20252;-43
2022/09/09 09:53:31;;;;;;;;;;;;;;;16.81;100.00;100663.56;5020791;28;19940;-44
2022/09/09 09:56:00;;;;;;;;;;;;;;;16.80;100.00;100665.41;5024675;28;19917;-45
2022/09/09 09:58:27;;;;;;;;;;;;;;;16.76;100.00;100664.19;5018669;28;19970;-44
2022/09/09 10:00:53;;;;;;;;;;;;;;;16.65;100.00;100665.66;5017952;28;19966;-42
2022/09/09 10:03:21;;;;;;;;;;;;;;;16.55;100.00;100659.81;5029756;28;19916;-43
2022/09/09 10:05:46;;;;;;;;;;;;;;;16.63;100.00;100667.69;5019858;28;19917;-42
2022/09/09 10:08:12;;;;;;;;;;;;;;;16.66;100.00;100661.88;5029128;28;20352;-42
2022/09/09 10:10:49;;;;;;;;;;;;;;;16.62;100.00;100671.44;5020210;28;19931;-43
2022/09/09 10:13:17;;;;;;;;;;;;;;;16.54;100.00;100663.53;5028624;28;19925;-41
2022/09/09 10:15:56;;;;;;;;;;;;;;;16.51;100.00;100669.34;5021594;28;19947;-41
2022/09/09 10:18:35;;;;;;;;;;;;;;;16.47;100.00;100670.78;5032493;28;19939;-41
2022/09/09 10:21:20;;;;;;;;;;;;;;;16.38;100.00;100676.38;5026270;28;19909;-42
2022/09/09 10:24:04;;;;;;;;;;;;;;;16.33;100.00;100673.44;5022171;28;19943;-42
2022/09/09 10:26:56;;;;;;;;;;;;;;;16.28;100.00;100670.53;5028278;28;20374;-46
2022/09/09 10:29:21;;;;;;;;;;;;;;;16.21;100.00;100683.16;5036012;28;19931;-44
2022/09/09 10:31:46;;;;;;;;;;;;;;;16.22;100.00;100676.72;5036803;28;19909;-41
2022/09/09 10:34:39;;;;;;;;;;;;;;;16.29;100.00;100671.34;5022880;28;19917;-41
2022/09/09 10:37:11;;;;;;;;;;;;;;;16.42;100.00;100672.22;5025985;28;20218;-43
2022/09/09 10:39:40;;;;;;;;;;;;;;;16.41;100.00;100673.28;5025825;28;20409;-41
2022/09/09 10:42:16;;;;;;;;;;;;;;;16.45;100.00;100675.56;5024453;28;19963;-41
2022/09/09 10:44:52;;;;;;;;;;;;;;;16.52;100.00;100671.84;5034473;28;20330;-44
2022/09/09 10:47:36;;;;;;;;;;;;;;;16.64;100.00;100672.06;5029991;28;19971;-42
2022/09/09 10:50:20;;;;;;;;;;;;;;;16.71;100.00;100669.38;5024787;28;19917;-46
2022/09/09 10:53:08;;;;;;;;;;;;;;;16.68;100.00;100667.91;5030766;28;19955;-45
2022/09/09 10:55:37;;;;;;;;;;;;;;;16.62;100.00;100657.97;5022995;28;19913;-42
2022/09/09 10:58:03;;;;;;;;;;;;;;;16.77;100.00;100669.38;5021842;28;20379;-42
2022/09/09 11:00:47;;;;;;;;;;;;;;;16.85;100.00;100662.97;5030332;28;20438;-44
2022/09/09 11:03:18;;;;;;;;;;;;;;;16.87;100.00;100665.47;5023591;28;20019;-42
2022/09/09 11:05:46;;;;;;;;;;;;;;;16.92;100.00;100661.13;5022272;28;20304;-41
2022/09/09 11:08:19;;;;;;;;;;;;;;;17.00;100.00;100660.06;5029722;28;20384;-43
2022/09/09 11:10:49;;;;;;;;;;;;;;;16.94;100.00;100659.03;5029000;28;20286;-44
2022/09/09 11:13:20;;;;;;;;;;;;;;;16.81;100.00;100666.28;5034230;28;19919;-41
2022/09/09 11:15:49;;;;;;;;;;;;;;;16.82;100.00;100668.78;5036340;28;19959;-42
2022/09/09 11:18:17;;;;;;;;;;;;;;;17.00;100.00;100662.75;5031559;28;19915;-42
2022/09/09 11:20:44;;;;;;;;;;;;;;;17.19;100.00;100666.47;5028668;28;19923;-46
2022/09/09 11:23:13;;;;;;;;;;;;;;;17.14;100.00;100668.97;5035205;28;19915;-41
2022/09/09 11:25:44;;;;;;;;;;;;;;;17.19;100.00;100663.78;5026035;28;20446;-45
2022/09/09 11:28:40;;;;;;;;;;;;;;;17.26;100.00;100669.19;5029465;28;20017;-45
2022/09/09 11:31:34;;;;;;;;;;;;;;;17.19;100.00;100666.47;5021814;28;19951;-43
2022/09/09 11:33:59;;;;;;;;;;;;;;;17.14;100.00;100668.97;5029485;28;19913;-43
2022/09/09 11:36:27;;;;;;;;;;;;;;;17.06;100.00;100663.81;5024687;28;20336;-43
2022/09/09 11:38:57;;;;;;;;;;;;;;;17.03;100.00;100661.53;5034720;28;19924;-41
2022/09/09 11:41:23;;;;;;;;;;;;;;;16.96;100.00;100654.25;5025207;28;20008;-44
2022/09/09 11:43:51;;;;;;;;;;;;;;;17.00;100.00;100654.66;5026452;28;19995;-46
2022/09/09 11:46:17;;;;;;;;;;;;;;;17.08;100.00;100677.94;5025588;28;19912;-43
2022/09/09 11:48:45;;;;;;;;;;;;;;;17.08;100.00;100659.03;5030619;28;19952;-43
2022/09/09 11:51:20;;;;;;;;;;;;;;;17.09;100.00;100653.44;5029937;28;19995;-42
2022/09/09 11:53:49;;;;;;;;;;;;;;;17.09;100.00;100657.97;5029678;28;19912;-42
2022/09/09 11:56:24;;;;;;;;;;;;;;;17.13;100.00;100657.38;5020120;28;19916;-43
2022/09/09 11:58:58;;;;;;;;;;;;;;;17.17;100.00;100656.94;5020852;28;19966;-44
2022/09/09 12:01:32;;;;;;;;;;;;;;;17.30;100.00;100663.16;5031767;28;20011;-47
2022/09/09 12:04:06;;;;;;;;;;;;;;;17.40;100.00;100670.84;5034702;28;19956;-46
2022/09/09 12:06:32;;;;;;;;;;;;;;;17.36;100.00;100655.25;5034043;28;20291;-43
2022/09/09 12:09:18;;;;;;;;;;;;;;;17.28;100.00;100653.63;5035590;28;20603;-44
2022/09/09 12:11:43;;;;;;;;;;;;;;;17.20;100.00;100649.25;5034829;28;19924;-48
2022/09/09 12:14:18;;;;;;;;;;;;;;;17.18;100.00;100661.31;5035203;28;20065;-43
2022/09/09 12:16:44;;;;;;;;;;;;;;;17.30;100.00;100655.06;5036121;28;20369;-43
2022/09/09 12:19:09;;;;;;;;;;;;;;;17.60;100.00;100661.84;5031958;28;19923;-44
2022/09/09 12:21:45;;;;;;;;;;;;;;;17.87;100.00;100657.22;5027536;28;19912;-43
2022/09/09 12:24:12;;;;;;;;;;;;;;;17.81;100.00;100658.06;5035773;28;19999;-48
2022/09/09 12:26:42;;;;;;;;;;;;;;;17.79;100.00;100655.56;5035397;28;19912;-42
2022/09/09 12:29:13;;;;;;;;;;;;;;;17.97;100.00;100659.47;5035523;28;19913;-46
2022/09/09 12:31:41;;;;;;;;;;;;;;;18.08;100.00;100646.09;5035452;28;19916;-45
2022/09/09 12:34:11;;;;;;;;;;;;;;;18.15;100.00;100651.47;5033671;28;20438;-43
2022/09/09 12:36:37;;;;;;;;;;;;;;;18.30;100.00;100642.25;5065951;28;19915;-42
2022/09/09 12:39:10;;;;;;;;;;;;;;;18.47;100.00;100643.41;5035122;28;19932;-44